createdAt,value
2022-07-26T00:00:26.913Z,1.20
2022-07-26T00:01:31.807Z,1.50
2022-07-26T00:02:33.590Z,1.15
2022-07-26T00:03:34.981Z,1.20
2022-07-26T00:04:36.302Z,1.23
2022-07-26T00:05:38.768Z,1.08
2022-07-26T00:06:40.189Z,1.20
2022-07-26T00:07:41.553Z,1.20
2022-07-26T00:08:42.957Z,1.40
2022-07-26T00:09:48.192Z,1.20
2022-07-26T00:10:50.009Z,1.45
2022-07-26T00:11:51.438Z,1.13
2022-07-26T00:12:52.785Z,1.30
2022-07-26T00:13:54.282Z,1.15
2022-07-26T00:14:55.618Z,1.23
2022-07-26T00:15:57.094Z,1.20
2022-07-26T00:16:58.618Z,1.20
2022-07-26T00:18:00.037Z,1.10
2022-07-26T00:19:01.394Z,1.20
2022-07-26T00:20:03.269Z,1.45
2022-07-26T00:24:39.519Z,1.17
2022-07-26T00:25:59.297Z,1.40
2022-07-26T00:27:38.230Z,1.05
2022-07-26T00:28:58.322Z,1.17
2022-07-26T00:29:59.689Z,1.33
2022-07-26T00:31:01.054Z,1.42
2022-07-26T00:32:02.570Z,1.40
2022-07-26T00:33:04.281Z,1.40
2022-07-26T00:34:05.673Z,1.20
2022-07-26T00:35:07.238Z,1.23
2022-07-26T00:36:08.621Z,1.38
2022-07-26T00:37:09.959Z,1.20
2022-07-26T00:38:11.285Z,1.40
2022-07-26T00:39:12.609Z,1.40
2022-07-26T00:40:14.398Z,1.27
2022-07-26T00:41:15.742Z,1.45
2022-07-26T00:42:17.082Z,1.30
2022-07-26T00:43:18.483Z,1.50
2022-07-26T00:44:19.888Z,1.33
2022-07-26T00:45:21.262Z,1.20
2022-07-26T00:46:22.647Z,1.23
2022-07-26T00:47:24.016Z,1.20
2022-07-26T00:48:25.373Z,1.40
2022-07-26T00:49:26.750Z,1.17
2022-07-26T00:50:28.118Z,1.40
2022-07-26T00:51:29.727Z,1.30
2022-07-26T00:52:31.151Z,1.25
2022-07-26T00:53:32.519Z,1.10
2022-07-26T00:54:34.083Z,1.42
2022-07-26T00:55:35.522Z,1.38
2022-07-26T00:56:37.644Z,1.38
2022-07-26T00:57:39.330Z,1.30
2022-07-26T00:58:41.208Z,1.45
2022-07-26T00:59:45.755Z,1.33
2022-07-26T01:00:47.168Z,1.40
2022-07-26T01:01:48.750Z,1.30
2022-07-26T01:02:50.309Z,1.70
2022-07-26T01:03:53.110Z,1.13
2022-07-26T01:04:54.452Z,1.10
2022-07-26T01:05:55.796Z,1.30
2022-07-26T01:06:57.223Z,1.40
2022-07-26T01:07:58.830Z,1.50
2022-07-26T01:09:00.615Z,1.20
2022-07-26T01:10:03.061Z,1.20
2022-07-26T01:11:04.515Z,1.40
2022-07-26T01:12:06.029Z,1.70
2022-07-26T01:13:07.432Z,1.38
2022-07-26T01:14:09.138Z,1.58
2022-07-26T01:15:11.646Z,1.40
2022-07-26T01:16:13.118Z,1.40
2022-07-26T01:17:14.722Z,1.60
2022-07-26T01:18:16.085Z,1.60
2022-07-26T01:19:17.839Z,1.40
2022-07-26T01:20:19.193Z,1.50
2022-07-26T01:21:22.126Z,1.42
2022-07-26T01:22:23.470Z,1.42
2022-07-26T01:23:24.785Z,1.42
2022-07-26T01:24:26.232Z,1.50
2022-07-26T01:25:28.695Z,1.60
2022-07-26T01:26:30.059Z,1.40
2022-07-26T01:27:34.125Z,1.38
2022-07-26T01:28:37.129Z,1.42
2022-07-26T01:29:38.619Z,1.20
2022-07-26T01:30:39.947Z,1.38
2022-07-26T01:31:41.488Z,1.40
2022-07-26T01:32:43.029Z,1.55
2022-07-26T01:33:44.949Z,1.52
2022-07-26T01:34:46.344Z,1.35
2022-07-26T01:35:47.831Z,1.05
2022-07-26T01:36:49.339Z,1.38
2022-07-26T01:37:50.772Z,1.13
2022-07-26T01:38:52.153Z,1.65
2022-07-26T01:39:53.504Z,1.40
2022-07-26T01:40:54.926Z,1.50
2022-07-26T01:41:56.867Z,1.52
2022-07-26T01:42:58.311Z,1.58
2022-07-26T01:43:59.681Z,1.25
2022-07-26T01:45:01.022Z,1.60
2022-07-26T01:46:02.878Z,1.40
2022-07-26T01:47:04.339Z,1.30
2022-07-26T01:48:05.903Z,1.35
2022-07-26T01:49:08.445Z,1.35
2022-07-26T01:50:09.935Z,1.50
2022-07-26T01:51:11.283Z,1.10
2022-07-26T01:52:12.663Z,1.27
2022-07-26T01:53:14.052Z,1.55
2022-07-26T01:54:15.394Z,1.27
2022-07-26T01:55:24.071Z,1.40
2022-07-26T01:56:25.490Z,1.27
2022-07-26T01:57:26.842Z,1.73
2022-07-26T01:58:28.179Z,1.52
2022-07-26T01:59:29.503Z,1.58
2022-07-26T02:00:34.802Z,1.30
2022-07-26T02:01:37.840Z,1.42
2022-07-26T02:02:41.584Z,1.30
2022-07-26T02:03:43.659Z,1.25
2022-07-26T02:05:00.009Z,1.33
2022-07-26T02:06:02.190Z,1.48
2022-07-26T02:07:05.533Z,1.33
2022-07-26T02:08:11.631Z,1.60
2022-07-26T02:09:14.065Z,1.58
2022-07-26T02:10:15.994Z,1.52
2022-07-26T02:11:17.331Z,1.70
2022-07-26T02:12:18.673Z,1.48
2022-07-26T02:13:20.059Z,1.60
2022-07-26T02:14:25.834Z,1.50
2022-07-26T02:15:29.421Z,1.45
2022-07-26T02:16:30.762Z,1.77
2022-07-26T02:17:32.099Z,1.55
2022-07-26T02:18:33.539Z,1.58
2022-07-26T02:19:35.203Z,1.42
2022-07-26T02:20:36.569Z,1.50
2022-07-26T02:21:37.970Z,1.77
2022-07-26T02:22:39.351Z,1.30
2022-07-26T02:23:42.006Z,1.55
2022-07-26T02:24:43.539Z,1.50
2022-07-26T02:25:44.925Z,1.73
2022-07-26T02:26:46.545Z,1.52
2022-07-26T02:27:48.073Z,1.52
2022-07-26T02:28:49.481Z,1.38
2022-07-26T02:29:50.831Z,1.60
2022-07-26T02:30:52.338Z,1.50
2022-07-26T02:31:54.240Z,1.42
2022-07-26T02:32:55.560Z,1.65
2022-07-26T02:33:57.070Z,1.55
2022-07-26T02:34:58.437Z,1.20
2022-07-26T02:35:59.742Z,1.38
2022-07-26T02:37:01.132Z,1.40
2022-07-26T02:38:06.973Z,1.30
2022-07-26T02:39:08.408Z,1.60
2022-07-26T02:40:13.201Z,1.58
2022-07-26T02:41:16.973Z,1.50
2022-07-26T02:42:18.320Z,1.52
2022-07-26T02:43:20.020Z,1.38
2022-07-26T02:44:21.818Z,1.65
2022-07-26T02:45:23.240Z,2.00
2022-07-26T02:46:24.637Z,1.60
2022-07-26T02:47:26.059Z,1.73
2022-07-26T02:48:27.427Z,1.67
2022-07-26T02:49:28.863Z,1.58
2022-07-26T02:50:30.432Z,1.42
2022-07-26T02:51:31.851Z,1.45
2022-07-26T02:52:33.177Z,1.80
2022-07-26T02:53:34.497Z,1.40
2022-07-26T02:54:35.874Z,1.50
2022-07-26T02:55:37.226Z,1.75
2022-07-26T02:56:38.681Z,1.65
2022-07-26T02:57:46.659Z,1.60
2022-07-26T02:58:48.371Z,1.33
2022-07-26T02:59:50.046Z,1.35
2022-07-26T03:00:51.413Z,1.42
2022-07-26T03:01:52.907Z,1.30
2022-07-26T03:02:54.418Z,1.48
2022-07-26T03:03:55.935Z,1.60
2022-07-26T03:04:57.252Z,1.73
2022-07-26T03:05:58.589Z,1.80
2022-07-26T03:06:59.902Z,1.50
2022-07-26T03:08:01.252Z,1.75
2022-07-26T03:09:02.763Z,1.70
2022-07-26T03:10:04.856Z,2.00
2022-07-26T03:11:10.352Z,1.73
2022-07-26T03:12:13.432Z,1.50
2022-07-26T03:13:15.257Z,1.50
2022-07-26T03:14:16.773Z,1.73
2022-07-26T03:15:18.155Z,1.50
2022-07-26T03:16:22.752Z,1.73
2022-07-26T03:17:26.432Z,1.73
2022-07-26T03:18:27.795Z,1.70
2022-07-26T03:19:29.182Z,1.58
2022-07-26T03:20:30.568Z,1.65
2022-07-26T03:21:31.973Z,1.80
2022-07-26T03:22:33.353Z,1.67
2022-07-26T03:23:34.991Z,1.85
2022-07-26T03:24:36.415Z,1.48
2022-07-26T03:25:37.847Z,2.17
2022-07-26T03:26:39.277Z,1.70
2022-07-26T03:27:40.682Z,1.60
2022-07-26T03:28:42.598Z,1.63
2022-07-26T03:29:43.921Z,1.50
2022-07-26T03:30:45.288Z,1.98
2022-07-26T03:31:46.729Z,1.80
2022-07-26T03:32:48.067Z,1.80
2022-07-26T03:33:49.417Z,1.75
2022-07-26T03:34:50.762Z,1.92
2022-07-26T03:35:52.103Z,1.50
2022-07-26T03:36:53.455Z,1.50
2022-07-26T03:37:54.835Z,1.75
2022-07-26T03:38:56.255Z,1.60
2022-07-26T03:39:57.628Z,1.50
2022-07-26T03:40:59.010Z,1.65
2022-07-26T03:42:00.339Z,2.10
2022-07-26T03:43:01.779Z,1.55
2022-07-26T03:44:04.709Z,1.80
2022-07-26T03:45:06.540Z,1.83
2022-07-26T03:46:08.013Z,1.70
2022-07-26T03:47:09.401Z,1.98
2022-07-26T03:48:10.793Z,1.55
2022-07-26T03:49:16.895Z,1.80
2022-07-26T03:50:18.796Z,1.80
2022-07-26T03:51:20.165Z,1.92
2022-07-26T03:52:21.469Z,1.67
2022-07-26T03:53:22.926Z,1.58
2022-07-26T03:54:25.097Z,1.58
2022-07-26T03:55:45.119Z,1.90
2022-07-26T03:56:46.528Z,1.58
2022-07-26T03:57:48.268Z,1.88
2022-07-26T03:58:49.681Z,1.80
2022-07-26T03:59:51.186Z,1.65
2022-07-26T04:00:52.554Z,1.80
2022-07-26T04:01:54.306Z,1.40
2022-07-26T04:02:55.928Z,1.83
2022-07-26T04:03:57.398Z,1.80
2022-07-26T04:04:59.032Z,1.60
2022-07-26T04:06:01.165Z,1.60
2022-07-26T04:07:03.147Z,1.80
2022-07-26T04:08:05.262Z,1.77
2022-07-26T04:09:07.994Z,1.77
2022-07-26T04:10:10.455Z,1.52
2022-07-26T04:11:11.905Z,1.90
2022-07-26T04:12:13.234Z,1.58
2022-07-26T04:13:14.763Z,1.70
2022-07-26T04:14:16.132Z,1.77
2022-07-26T04:15:19.100Z,1.65
2022-07-26T04:16:20.693Z,1.80
2022-07-26T04:17:22.138Z,1.73
2022-07-26T04:18:24.768Z,2.20
2022-07-26T04:19:26.280Z,1.90
2022-07-26T04:20:27.650Z,1.75
2022-07-26T04:21:28.980Z,1.80
2022-07-26T04:22:30.345Z,1.70
2022-07-26T04:23:31.842Z,2.03
2022-07-26T04:24:33.158Z,1.80
2022-07-26T04:25:40.994Z,1.55
2022-07-26T04:26:43.059Z,1.48
2022-07-26T04:27:44.518Z,1.67
2022-07-26T04:28:45.912Z,1.98
2022-07-26T04:29:47.351Z,1.83
2022-07-26T04:30:48.860Z,1.95
2022-07-26T04:31:50.299Z,2.03
2022-07-26T04:32:51.652Z,1.52
2022-07-26T04:33:53.024Z,1.80
2022-07-26T04:34:54.460Z,1.80
2022-07-26T04:35:55.854Z,1.90
2022-07-26T04:36:57.176Z,1.80
2022-07-26T04:37:58.594Z,1.80
2022-07-26T04:39:00.000Z,1.70
2022-07-26T04:40:01.411Z,1.90
2022-07-26T04:41:02.959Z,1.98
2022-07-26T04:42:04.320Z,2.17
2022-07-26T04:43:05.684Z,2.17
2022-07-26T04:44:10.931Z,1.92
2022-07-26T04:45:12.802Z,1.48
2022-07-26T04:46:14.293Z,1.60
2022-07-26T04:47:15.633Z,1.63
2022-07-26T04:48:17.096Z,1.85
2022-07-26T04:49:18.553Z,1.65
2022-07-26T04:50:24.098Z,2.00
2022-07-26T04:51:26.442Z,2.25
2022-07-26T04:52:27.849Z,1.98
2022-07-26T04:53:29.280Z,1.65
2022-07-26T04:54:30.764Z,1.60
2022-07-26T04:55:32.596Z,1.83
2022-07-26T04:56:34.271Z,1.67
2022-07-26T04:57:35.947Z,1.50
2022-07-26T04:58:37.597Z,1.67
2022-07-26T04:59:39.013Z,1.52
2022-07-26T05:01:09.581Z,1.45
2022-07-26T05:02:03.202Z,1.90
2022-07-26T05:03:05.615Z,1.60
2022-07-26T05:04:07.210Z,1.55
2022-07-26T05:05:08.810Z,1.50
2022-07-26T05:06:10.134Z,1.70
2022-07-26T05:07:11.485Z,1.83
2022-07-26T05:08:14.604Z,1.63
2022-07-26T05:09:16.070Z,2.17
2022-07-26T05:10:18.308Z,1.63
2022-07-26T05:11:19.646Z,1.50
2022-07-26T05:12:20.985Z,1.60
2022-07-26T05:13:29.504Z,1.95
2022-07-26T05:14:32.154Z,1.67
2022-07-26T05:15:35.385Z,1.83
2022-07-26T05:16:39.275Z,1.75
2022-07-26T05:17:45.939Z,1.70
2022-07-26T05:18:49.240Z,3.92
2022-07-26T05:19:54.270Z,3.10
2022-07-26T05:20:55.919Z,2.35
2022-07-26T05:21:57.496Z,2.10
2022-07-26T05:22:59.615Z,2.08
2022-07-26T05:24:00.967Z,2.20
2022-07-26T05:25:02.641Z,1.83
2022-07-26T05:26:04.098Z,1.80
2022-07-26T05:27:05.491Z,2.05
2022-07-26T05:28:06.983Z,1.40
2022-07-26T05:29:08.351Z,1.80
2022-07-26T05:30:10.577Z,1.77
2022-07-26T05:31:12.015Z,1.33
2022-07-26T05:32:13.400Z,1.77
2022-07-26T05:33:16.409Z,1.65
2022-07-26T05:34:18.125Z,1.67
2022-07-26T05:35:22.593Z,1.60
2022-07-26T05:36:24.024Z,1.70
2022-07-26T05:37:25.868Z,1.80
2022-07-26T05:38:27.713Z,1.70
2022-07-26T05:39:29.047Z,1.80
2022-07-26T05:40:30.485Z,1.63
2022-07-26T05:41:31.899Z,1.70
2022-07-26T05:42:33.359Z,1.52
2022-07-26T05:43:41.935Z,1.70
2022-07-26T05:44:43.575Z,1.50
2022-07-26T05:45:45.906Z,1.70
2022-07-26T05:46:47.289Z,2.05
2022-07-26T05:47:51.626Z,1.80
2022-07-26T05:48:53.026Z,1.55
2022-07-26T05:49:55.193Z,1.60
2022-07-26T05:50:56.533Z,1.77
2022-07-26T05:52:01.180Z,1.40
2022-07-26T05:53:02.953Z,1.80
2022-07-26T05:54:04.679Z,1.70
2022-07-26T05:55:07.114Z,1.77
2022-07-26T05:56:08.583Z,1.25
2022-07-26T05:57:09.938Z,1.80
2022-07-26T05:58:11.515Z,1.40
2022-07-26T05:59:12.972Z,1.50
2022-07-26T06:00:14.803Z,1.70
2022-07-26T06:01:16.310Z,1.33
2022-07-26T06:02:20.829Z,1.50
2022-07-26T06:03:22.222Z,1.98
2022-07-26T06:04:25.074Z,1.85
2022-07-26T06:05:28.040Z,1.60
2022-07-26T06:06:29.432Z,1.63
2022-07-26T06:07:30.755Z,1.83
2022-07-26T06:08:32.296Z,1.60
2022-07-26T06:09:33.601Z,1.60
2022-07-26T06:10:34.999Z,1.75
2022-07-26T06:11:36.323Z,2.22
2022-07-26T06:12:38.319Z,2.20
2022-07-26T06:13:39.693Z,1.92
2022-07-26T06:14:41.200Z,1.98
2022-07-26T06:15:43.053Z,1.58
2022-07-26T06:16:44.523Z,1.63
2022-07-26T06:17:45.937Z,1.52
2022-07-26T06:18:47.345Z,1.30
2022-07-26T06:19:48.706Z,1.27
2022-07-26T06:20:51.287Z,1.52
2022-07-26T06:21:52.955Z,1.50
2022-07-26T06:22:54.387Z,1.70
2022-07-26T06:23:55.780Z,1.48
2022-07-26T06:24:57.092Z,1.50
2022-07-26T06:25:58.433Z,1.30
2022-07-26T06:27:04.966Z,1.40
2022-07-26T06:28:08.339Z,1.40
2022-07-26T06:29:09.868Z,1.50
2022-07-26T06:30:12.998Z,1.48
2022-07-26T06:31:14.774Z,1.38
2022-07-26T06:32:16.301Z,1.15
2022-07-26T06:33:17.834Z,1.25
2022-07-26T06:34:19.223Z,1.20
2022-07-26T06:35:20.644Z,1.10
2022-07-26T06:36:25.082Z,1.17
2022-07-26T06:37:28.683Z,1.10
2022-07-26T06:38:30.059Z,1.35
2022-07-26T06:39:32.302Z,1.23
2022-07-26T06:40:33.905Z,1.23
2022-07-26T06:41:35.240Z,1.60
2022-07-26T06:42:36.763Z,1.08
2022-07-26T06:43:38.164Z,1.33
2022-07-26T06:44:39.525Z,1.20
2022-07-26T06:45:41.130Z,1.20
2022-07-26T06:46:42.515Z,1.50
2022-07-26T06:47:44.023Z,1.40
2022-07-26T06:48:47.432Z,1.50
2022-07-26T06:49:54.203Z,1.20
2022-07-26T06:50:55.527Z,1.55
2022-07-26T06:51:57.861Z,1.38
2022-07-26T06:52:59.209Z,1.67
2022-07-26T06:54:01.120Z,1.23
2022-07-26T06:55:03.047Z,1.20
2022-07-26T06:56:04.824Z,1.23
2022-07-26T06:57:06.187Z,1.50
2022-07-26T06:58:07.573Z,1.17
2022-07-26T06:59:09.619Z,1.30
2022-07-26T07:00:11.436Z,1.20
2022-07-26T07:01:12.953Z,1.35
2022-07-26T07:02:34.414Z,1.58
2022-07-26T07:03:35.766Z,1.23
2022-07-26T07:04:37.237Z,1.30
2022-07-26T07:05:38.604Z,1.27
2022-07-26T07:06:39.938Z,1.15
2022-07-26T07:07:42.759Z,1.38
2022-07-26T07:08:44.245Z,1.63
2022-07-26T07:09:46.164Z,1.25
2022-07-26T07:10:47.517Z,1.02
2022-07-26T07:11:57.438Z,1.00
2022-07-26T07:13:01.706Z,1.10
2022-07-26T07:14:03.438Z,1.10
2022-07-26T07:15:05.094Z,0.90
2022-07-26T07:16:06.779Z,1.42
2022-07-26T07:17:13.058Z,1.00
2022-07-26T07:18:16.364Z,1.05
2022-07-26T07:19:17.771Z,1.20
2022-07-26T07:20:19.177Z,1.23
2022-07-26T07:21:20.548Z,0.80
2022-07-26T07:22:21.988Z,0.90
2022-07-26T07:23:23.480Z,1.10
2022-07-26T07:24:24.953Z,1.02
2022-07-26T07:25:30.841Z,0.98
2022-07-26T07:26:32.701Z,0.93
2022-07-26T07:27:34.314Z,1.02
2022-07-26T07:28:38.423Z,0.90
2022-07-26T07:29:41.106Z,0.90
2022-07-26T07:30:42.955Z,0.90
2022-07-26T07:31:48.157Z,0.93
2022-07-26T07:32:51.072Z,1.05
2022-07-26T07:33:53.457Z,1.00
2022-07-26T07:34:55.246Z,0.82
2022-07-26T07:35:56.611Z,0.80
2022-07-26T07:36:58.265Z,0.75
2022-07-26T07:37:59.616Z,0.80
2022-07-26T07:39:06.160Z,0.95
2022-07-26T07:40:08.805Z,0.70
2022-07-26T07:41:10.154Z,0.93
2022-07-26T07:42:11.537Z,0.90
2022-07-26T07:43:12.958Z,0.80
2022-07-26T07:44:14.654Z,0.85
2022-07-26T07:45:15.980Z,0.80
2022-07-26T07:46:17.400Z,0.80
2022-07-26T07:47:18.830Z,1.00
2022-07-26T07:48:20.180Z,0.90
2022-07-26T07:49:22.311Z,1.02
2022-07-26T07:50:27.088Z,0.82
2022-07-26T07:51:29.906Z,1.08
2022-07-26T07:52:31.550Z,0.82
2022-07-26T07:53:32.926Z,0.80
2022-07-26T07:54:34.766Z,1.27
2022-07-26T07:55:41.503Z,1.00
2022-07-26T07:56:45.558Z,0.80
2022-07-26T07:57:46.965Z,0.90
2022-07-26T07:58:48.288Z,0.75
2022-07-26T07:59:49.794Z,0.80
2022-07-26T08:00:51.198Z,0.90
2022-07-26T08:01:52.663Z,0.93
2022-07-26T08:02:54.475Z,0.98
2022-07-26T08:03:55.877Z,0.90
2022-07-26T08:05:00.503Z,0.98
2022-07-26T08:06:13.045Z,1.00
2022-07-26T08:07:14.898Z,0.77
2022-07-26T08:08:16.913Z,0.80
2022-07-26T08:09:19.101Z,0.90
2022-07-26T08:10:20.774Z,0.90
2022-07-26T08:11:22.670Z,0.85
2022-07-26T08:12:31.380Z,0.70
2022-07-26T08:13:32.793Z,0.77
2022-07-26T08:14:34.177Z,0.93
2022-07-26T08:15:35.524Z,1.02
2022-07-26T08:16:40.653Z,1.10
2022-07-26T08:17:42.140Z,0.80
2022-07-26T08:18:56.010Z,0.88
2022-07-26T08:20:00.610Z,0.80
2022-07-26T08:21:03.374Z,1.20
2022-07-26T08:22:08.182Z,0.52
2022-07-26T08:23:09.568Z,0.80
2022-07-26T08:24:11.812Z,0.68
2022-07-26T08:25:13.226Z,0.73
2022-07-26T08:26:14.616Z,0.93
2022-07-26T08:27:16.016Z,0.70
2022-07-26T08:28:37.777Z,0.77
2022-07-26T08:29:38.962Z,0.80
2022-07-26T08:30:40.973Z,0.90
2022-07-26T08:31:42.395Z,0.85
2022-07-26T08:32:43.765Z,0.90
2022-07-26T08:33:46.355Z,0.85
2022-07-26T08:34:48.254Z,0.50
2022-07-26T08:35:49.652Z,0.80
2022-07-26T08:37:15.353Z,0.70
2022-07-26T08:38:12.322Z,0.85
2022-07-26T08:39:13.702Z,0.73
2022-07-26T08:40:15.092Z,0.60
2022-07-26T08:41:17.734Z,0.60
2022-07-26T08:42:22.361Z,0.68
2022-07-26T08:43:24.861Z,0.82
2022-07-26T08:44:26.190Z,0.63
2022-07-26T08:45:29.314Z,0.80
2022-07-26T08:46:30.893Z,0.90
2022-07-26T08:47:35.377Z,0.98
2022-07-26T08:48:41.578Z,0.80
2022-07-26T08:49:43.632Z,1.08
2022-07-26T08:50:45.077Z,0.70
2022-07-26T08:51:46.531Z,0.65
2022-07-26T08:52:48.239Z,0.60
2022-07-26T08:53:50.545Z,0.90
2022-07-26T08:54:52.203Z,0.93
2022-07-26T08:56:07.057Z,1.08
2022-07-26T08:57:08.794Z,0.90
2022-07-26T08:58:10.136Z,1.25
2022-07-26T08:59:20.751Z,0.70
2022-07-26T09:00:30.881Z,0.70
2022-07-26T09:01:32.463Z,0.80
2022-07-26T09:02:41.476Z,0.80
2022-07-26T09:03:43.316Z,0.93
2022-07-26T09:04:46.286Z,0.75
2022-07-26T09:05:47.729Z,0.80
2022-07-26T09:06:57.514Z,0.80
2022-07-26T09:07:59.311Z,1.00
2022-07-26T09:09:10.025Z,0.68
2022-07-26T09:10:13.574Z,0.60
2022-07-26T09:11:23.848Z,0.85
2022-07-26T09:12:25.825Z,0.88
2022-07-26T09:13:47.105Z,0.75
2022-07-26T09:14:48.586Z,0.93
2022-07-26T09:16:08.400Z,0.98
2022-07-26T09:17:09.815Z,1.30
2022-07-26T09:18:29.688Z,0.80
2022-07-26T09:19:31.040Z,0.75
2022-07-26T09:20:33.170Z,0.88
2022-07-26T09:21:38.081Z,0.60
2022-07-26T09:22:55.175Z,0.80
2022-07-26T09:23:56.697Z,0.70
2022-07-26T09:24:59.956Z,0.75
2022-07-26T09:26:04.343Z,0.70
2022-07-26T09:27:06.808Z,0.70
2022-07-26T09:28:24.817Z,0.90
2022-07-26T09:29:26.940Z,0.73
2022-07-26T09:30:29.361Z,0.70
2022-07-26T09:31:30.797Z,0.52
2022-07-26T09:32:32.444Z,0.60
2022-07-26T09:33:45.774Z,0.82
2022-07-26T09:34:55.695Z,0.70
2022-07-26T09:36:04.276Z,0.70
2022-07-26T09:37:11.380Z,0.90
2022-07-26T09:38:14.502Z,0.57
2022-07-26T09:39:15.905Z,0.80
2022-07-26T09:40:18.301Z,0.70
2022-07-26T09:41:20.658Z,0.90
2022-07-26T09:42:28.899Z,0.77
2022-07-26T09:43:36.694Z,0.70
2022-07-26T09:44:47.880Z,0.50
2022-07-26T09:46:02.229Z,0.88
2022-07-26T09:47:03.662Z,0.63
2022-07-26T09:48:05.228Z,0.80
2022-07-26T09:49:19.924Z,0.70
2022-07-26T09:50:25.990Z,0.68
2022-07-26T09:51:43.677Z,0.60
2022-07-26T09:52:57.797Z,0.80
2022-07-26T09:53:59.381Z,0.90
2022-07-26T09:55:04.096Z,0.60
2022-07-26T09:56:05.576Z,0.80
2022-07-26T09:57:07.010Z,0.73
2022-07-26T09:58:08.711Z,0.77
2022-07-26T09:59:10.107Z,0.80
2022-07-26T10:00:12.313Z,0.80
2022-07-26T10:01:13.858Z,1.00
2022-07-26T10:02:15.348Z,0.70
2022-07-26T10:03:16.809Z,0.90
2022-07-26T10:04:18.532Z,0.90
2022-07-26T10:05:21.462Z,0.60
2022-07-26T10:06:26.103Z,0.73
2022-07-26T10:07:31.727Z,0.70
2022-07-26T10:08:33.169Z,0.90
2022-07-26T10:09:39.226Z,0.73
2022-07-26T10:10:46.200Z,0.63
2022-07-26T10:11:50.545Z,0.80
2022-07-26T10:12:52.222Z,0.60
2022-07-26T10:13:53.639Z,0.77
2022-07-26T10:14:55.230Z,0.60
2022-07-26T10:15:56.830Z,0.70
2022-07-26T10:17:00.229Z,0.70
2022-07-26T10:18:02.217Z,0.60
2022-07-26T10:19:04.304Z,0.73
2022-07-26T10:20:10.778Z,0.70
2022-07-26T10:21:20.598Z,0.50
2022-07-26T10:22:22.705Z,0.70
2022-07-26T10:23:37.379Z,0.60
2022-07-26T10:24:41.242Z,0.70
2022-07-26T10:25:46.759Z,0.70
2022-07-26T10:26:48.371Z,0.70
2022-07-26T10:27:49.677Z,0.80
2022-07-26T10:28:51.061Z,0.90
2022-07-26T10:30:12.386Z,0.98
2022-07-26T10:31:24.596Z,1.15
2022-07-26T10:32:26.119Z,0.68
2022-07-26T10:33:27.659Z,0.75
2022-07-26T10:34:30.200Z,1.33
2022-07-26T10:35:32.697Z,1.15
2022-07-26T10:36:38.795Z,0.60
2022-07-26T10:37:57.086Z,0.55
2022-07-26T10:39:18.702Z,0.90
2022-07-26T10:40:21.062Z,0.70
2022-07-26T10:41:31.385Z,0.85
2022-07-26T10:42:42.862Z,0.77
2022-07-26T10:44:04.186Z,0.70
2022-07-26T10:45:19.462Z,0.73
2022-07-26T10:46:23.180Z,0.50
2022-07-26T10:47:24.571Z,0.80
2022-07-26T10:48:25.900Z,0.70
2022-07-26T10:49:37.445Z,0.88
2022-07-26T10:50:39.732Z,0.93
2022-07-26T10:51:41.212Z,0.70
2022-07-26T10:52:57.545Z,1.13
2022-07-26T10:53:59.644Z,0.80
2022-07-26T10:55:01.066Z,0.70
2022-07-26T10:56:03.139Z,1.25
2022-07-26T10:57:04.565Z,0.73
2022-07-26T10:58:06.006Z,0.80
2022-07-26T10:59:07.500Z,0.82
2022-07-26T11:00:10.931Z,0.65
2022-07-26T11:01:12.700Z,0.77
2022-07-26T11:02:21.389Z,0.82
2022-07-26T11:03:23.026Z,0.70
2022-07-26T11:04:24.908Z,0.70
2022-07-26T11:05:34.625Z,0.88
2022-07-26T11:06:35.994Z,0.70
2022-07-26T11:07:46.769Z,0.77
2022-07-26T11:08:48.561Z,0.50
2022-07-26T11:09:50.004Z,0.82
2022-07-26T11:10:51.357Z,0.70
2022-07-26T11:11:52.717Z,0.70
2022-07-26T11:13:06.241Z,0.82
2022-07-26T11:14:09.107Z,0.77
2022-07-26T11:15:17.478Z,0.70
2022-07-26T11:16:18.860Z,0.60
2022-07-26T11:17:30.071Z,0.50
2022-07-26T11:18:32.757Z,0.80
2022-07-26T11:19:38.889Z,0.77
2022-07-26T11:20:40.968Z,0.60
2022-07-26T11:21:43.483Z,0.80
2022-07-26T11:22:44.850Z,0.80
2022-07-26T11:23:47.447Z,0.70
2022-07-26T11:24:48.881Z,0.65
2022-07-26T11:26:10.071Z,0.80
2022-07-26T11:27:11.531Z,0.77
2022-07-26T11:28:12.896Z,1.00
2022-07-26T11:29:17.631Z,0.70
2022-07-26T11:30:23.923Z,0.52
2022-07-26T11:31:50.627Z,0.60
2022-07-26T11:32:53.990Z,1.10
2022-07-26T11:33:56.078Z,0.60
2022-07-26T11:34:58.865Z,0.90
2022-07-26T11:36:00.196Z,0.60
2022-07-26T11:37:03.230Z,0.88
2022-07-26T11:38:12.252Z,0.70
2022-07-26T11:39:23.961Z,0.70
2022-07-26T11:40:44.049Z,1.00
2022-07-26T11:41:45.422Z,0.60
2022-07-26T11:42:53.052Z,0.70
2022-07-26T11:43:57.920Z,0.90
2022-07-26T11:45:03.554Z,0.80
2022-07-26T11:46:05.308Z,0.60
2022-07-26T11:47:13.553Z,0.45
2022-07-26T11:48:14.989Z,0.82
2022-07-26T11:49:51.910Z,0.90
2022-07-26T11:50:47.607Z,0.60
2022-07-26T11:51:53.825Z,0.90
2022-07-26T11:52:55.835Z,0.60
2022-07-26T11:53:59.937Z,0.68
2022-07-26T11:55:01.323Z,0.70
2022-07-26T11:56:22.917Z,0.60
2022-07-26T11:57:30.892Z,0.80
2022-07-26T11:58:33.043Z,0.50
2022-07-26T11:59:35.813Z,0.65
2022-07-26T12:00:37.259Z,0.90
2022-07-26T12:01:39.339Z,0.77
2022-07-26T12:02:40.774Z,0.70
2022-07-26T12:03:43.359Z,0.65
2022-07-26T12:04:44.949Z,0.80
2022-07-26T12:06:01.283Z,0.55
2022-07-26T12:07:08.130Z,0.80
2022-07-26T12:08:09.894Z,0.60
2022-07-26T12:09:11.249Z,0.60
2022-07-26T12:10:15.931Z,0.68
2022-07-26T12:11:18.328Z,0.70
2022-07-26T12:12:23.520Z,0.50
2022-07-26T12:13:26.164Z,1.00
2022-07-26T12:14:31.832Z,0.73
2022-07-26T12:15:46.141Z,0.77
2022-07-26T12:16:47.522Z,0.60
2022-07-26T12:17:59.178Z,0.75
2022-07-26T12:19:00.581Z,0.80
2022-07-26T12:20:11.868Z,0.70
2022-07-26T12:21:13.216Z,0.80
2022-07-26T12:22:18.458Z,1.38
2022-07-26T12:23:19.846Z,1.13
2022-07-26T12:24:53.606Z,0.60
2022-07-26T12:25:55.006Z,0.65
2022-07-26T12:27:05.354Z,0.73
2022-07-26T12:28:07.624Z,0.70
2022-07-26T12:29:27.346Z,0.70
2022-07-26T12:30:34.734Z,0.60
2022-07-26T12:31:36.241Z,0.82
2022-07-26T12:32:38.447Z,0.82
2022-07-26T12:33:49.164Z,0.60
2022-07-26T12:35:01.186Z,0.60
2022-07-26T12:36:16.484Z,0.80
2022-07-26T12:37:39.373Z,0.60
2022-07-26T12:38:43.993Z,0.63
2022-07-26T12:40:07.038Z,1.00
2022-07-26T12:41:08.451Z,0.85
2022-07-26T12:42:33.279Z,0.70
2022-07-26T12:43:39.950Z,0.90
2022-07-26T12:44:41.293Z,0.85
2022-07-26T12:45:43.431Z,0.93
2022-07-26T12:46:44.915Z,0.70
2022-07-26T12:47:47.816Z,0.70
2022-07-26T12:48:49.186Z,0.70
2022-07-26T12:49:50.833Z,0.70
2022-07-26T12:50:52.156Z,0.85
2022-07-26T12:51:53.478Z,0.93
2022-07-26T12:53:02.431Z,1.20
2022-07-26T12:54:06.216Z,0.70
2022-07-26T12:55:08.758Z,1.00
2022-07-26T12:56:10.497Z,0.80
2022-07-26T12:57:11.988Z,0.63
2022-07-26T12:58:13.410Z,0.70
2022-07-26T12:59:17.631Z,0.80
2022-07-26T13:00:20.240Z,0.73
2022-07-26T13:01:21.670Z,0.70
2022-07-26T13:02:23.700Z,0.60
2022-07-26T13:03:25.030Z,0.60
2022-07-26T13:04:26.445Z,0.63
2022-07-26T13:05:27.850Z,0.85
2022-07-26T13:06:29.243Z,0.98
2022-07-26T13:07:30.711Z,0.70
2022-07-26T13:08:32.134Z,1.00
2022-07-26T13:09:33.930Z,1.13
2022-07-26T13:10:36.127Z,1.33
2022-07-26T13:11:37.759Z,0.80
2022-07-26T13:12:39.896Z,0.88
2022-07-26T13:13:41.837Z,0.88
2022-07-26T13:14:43.223Z,0.80
2022-07-26T13:15:44.906Z,0.70
2022-07-26T13:16:46.427Z,0.65
2022-07-26T13:17:47.830Z,0.60
2022-07-26T13:18:49.266Z,0.98
2022-07-26T13:19:50.624Z,0.75
2022-07-26T13:20:52.002Z,0.65
2022-07-26T13:21:53.489Z,0.80
2022-07-26T13:22:55.007Z,0.85
2022-07-26T13:23:56.808Z,0.77
2022-07-26T13:24:58.177Z,0.80
2022-07-26T13:26:09.120Z,0.70
2022-07-26T13:27:10.883Z,1.00
2022-07-26T13:28:12.271Z,0.98
2022-07-26T13:29:13.715Z,0.70
2022-07-26T13:30:15.115Z,0.80
2022-07-26T13:31:16.759Z,1.00
2022-07-26T13:32:18.216Z,0.90
2022-07-26T13:33:19.577Z,0.75
2022-07-26T13:34:21.483Z,0.80
2022-07-26T13:35:22.931Z,0.80
2022-07-26T13:36:24.270Z,0.90
2022-07-26T13:37:25.655Z,0.60
2022-07-26T13:38:28.318Z,0.90
2022-07-26T13:39:31.734Z,0.85
2022-07-26T13:40:33.338Z,0.77
2022-07-26T13:41:35.800Z,0.70
2022-07-26T13:42:39.175Z,1.00
2022-07-26T13:43:40.619Z,0.75
2022-07-26T13:44:42.025Z,0.90
2022-07-26T13:45:43.818Z,1.08
2022-07-26T13:46:45.253Z,0.85
2022-07-26T13:47:47.219Z,0.80
2022-07-26T13:49:00.691Z,0.90
2022-07-26T13:50:03.072Z,1.08
2022-07-26T13:51:04.677Z,0.98
2022-07-26T13:52:10.916Z,0.90
2022-07-26T13:53:16.797Z,0.68
2022-07-26T13:54:19.114Z,0.77
2022-07-26T13:55:20.733Z,1.10
2022-07-26T13:56:22.068Z,0.82
2022-07-26T13:57:23.420Z,0.90
2022-07-26T13:58:44.833Z,0.85
2022-07-26T13:59:46.167Z,0.95
2022-07-26T14:00:48.153Z,0.73
2022-07-26T14:01:49.547Z,0.90
2022-07-26T14:02:51.069Z,1.05
2022-07-26T14:03:53.301Z,0.80
2022-07-26T14:04:54.669Z,0.80
2022-07-26T14:05:56.114Z,0.80
2022-07-26T14:06:57.447Z,1.00
2022-07-26T14:07:58.841Z,0.80